Main page
METAR-TAF:

METAR-TAF

Airports :

Kuwait International Airport

Kuwait City, Kuwait

latitude: 29-13N, longitude: 047-59E, elevation: 55 m

Current weather observation

The report was made 48 minutes ago, at 06:00 UTC
Wind 8 kt from the North
Temperature 41°C
Humidity 15%
Pressure 998 hPa
Visibility: 7000 m

METAR: OKKK 150600Z 35008KT 7000 NSC 41/09 Q0998 NOSIG

Time: 09:48 (06:48 UTC)

Forecast

The report was made 1 hour and 48 minutes ago, at 05:00 UTC
Forecast valid from 15 at 06 UTC to 16 at 12 UTC
Wind 10 kt from the North
Visibility: 7000 m
Becoming
from 15 at 12 UTC to 15 at 14 UTC
Wind 10 kt from the South/Southeast

TAF: OKKK 150500Z 1506/1612 35010KT 7000 NSC BECMG 1512/1514 16010KT

Weather observations and forecasts of more than 4000 airports (METAR and TAF reports).

The available stations are represented by yellow and red dots on the map.

Hover mouse over dot to see the name of the station.

Then click to see weather observations and forecasts.

To change the map : click on the green buttons with a black cross to zoom in, on the green button with a dash to zoom out, or on the green arrows for adjacent maps.


METAR-TAF: